Terminal Aerodrome Forecast
Issued by NWS Wilmington, OH

Current Version | Previous Version | Graphics & Text | Print | Product List | Glossary Off
Versions: 1 2 3 4 5 6 7 8 9 10 11 12 13 14 15 16 17

824
FTUS41 KILN 242342
TAFDAY
TAF
KDAY 242342Z 2500/2524 19010KT P6SM FEW230
     FM250300 20012KT P6SM SCT230 WS020/22045KT
     FM250900 23010KT P6SM BKN110
     FM251400 28008KT P6SM BKN030
     FM252000 30010KT P6SM SCT045=

USA.gov is the U.S. government's official web portal to all federal, state and local government web resources and services.